createdAt,value
2023-05-16T00:01:20.671Z,11.00
2023-05-16T00:03:51.933Z,6.40
2023-05-16T00:06:23.264Z,7.90
2023-05-16T00:08:56.727Z,9.90
2023-05-16T00:11:28.672Z,6.60
2023-05-16T00:14:01.640Z,5.50
2023-05-16T00:16:33.121Z,6.10
2023-05-16T00:19:05.833Z,7.10
2023-05-16T00:21:39.934Z,8.10
2023-05-16T00:24:12.536Z,6.80
2023-05-16T00:49:19.767Z,15.80
2023-05-16T00:51:54.710Z,7.40
2023-05-16T00:54:39.581Z,8.00
2023-05-16T00:57:11.922Z,7.50
2023-05-16T00:59:44.157Z,8.70
2023-05-16T01:02:15.773Z,7.70
2023-05-16T01:04:48.561Z,8.90
2023-05-16T01:07:20.220Z,9.10
2023-05-16T01:09:51.192Z,12.10
2023-05-16T01:12:37.647Z,8.10
2023-05-16T01:15:13.927Z,7.40
2023-05-16T01:17:57.148Z,9.80
2023-05-16T01:20:38.826Z,7.90
2023-05-16T01:23:34.998Z,9.10
2023-05-16T01:26:19.915Z,9.60
2023-05-16T01:28:52.695Z,10.90
2023-05-16T01:31:24.847Z,9.40
2023-05-16T01:33:55.834Z,9.40
2023-05-16T01:36:31.982Z,8.20
2023-05-16T01:39:21.901Z,8.50
2023-05-16T01:42:00.954Z,16.60
2023-05-16T01:44:36.667Z,7.80
2023-05-16T01:47:13.776Z,9.20
2023-05-16T01:49:58.532Z,13.50
2023-05-16T01:52:33.722Z,9.00
2023-05-16T01:55:07.938Z,10.10
2023-05-16T01:57:40.157Z,12.00
2023-05-16T02:00:13.492Z,8.40
2023-05-16T02:02:48.206Z,12.70
2023-05-16T02:05:20.823Z,11.50
2023-05-16T02:07:52.138Z,9.50
2023-05-16T02:10:23.344Z,10.00
2023-05-16T02:12:55.640Z,10.70
2023-05-16T02:15:27.235Z,9.20
2023-05-16T02:18:00.070Z,10.30
2023-05-16T02:20:31.453Z,10.70
2023-05-16T02:23:03.435Z,10.00
2023-05-16T02:25:36.445Z,10.80
2023-05-16T02:28:08.146Z,10.30
2023-05-16T02:30:39.122Z,11.20
2023-05-16T02:33:10.242Z,11.00
2023-05-16T02:35:43.644Z,11.40
2023-05-16T02:38:34.947Z,10.10
2023-05-16T02:41:06.133Z,12.70
2023-05-16T02:43:37.611Z,10.50
2023-05-16T02:46:23.771Z,10.30
2023-05-16T02:48:55.804Z,10.20
2023-05-16T02:51:28.806Z,10.90
2023-05-16T02:54:01.490Z,10.60
2023-05-16T02:56:58.108Z,9.50
2023-05-16T03:03:10.715Z,9.90
2023-05-16T03:30:29.558Z,13.20
2023-05-16T03:32:58.877Z,7.60
2023-05-16T03:35:28.446Z,8.80
2023-05-16T03:37:57.113Z,8.80
2023-05-16T03:40:25.537Z,9.20
2023-05-16T03:42:53.833Z,12.90
2023-05-16T03:45:22.469Z,9.40
2023-05-16T03:47:50.952Z,9.20
2023-05-16T03:50:20.782Z,8.20
2023-05-16T03:52:49.067Z,9.00
2023-05-16T03:55:17.621Z,8.50
2023-05-16T03:57:47.254Z,7.90
2023-05-16T04:00:18.696Z,10.30
2023-05-16T04:02:47.110Z,9.10
2023-05-16T04:05:15.874Z,8.90
2023-05-16T04:07:44.812Z,7.50
2023-05-16T04:10:20.029Z,9.10
2023-05-16T04:12:48.664Z,8.60
2023-05-16T04:15:16.956Z,8.50
2023-05-16T04:17:47.293Z,7.40
2023-05-16T04:20:32.766Z,9.20
2023-05-16T04:23:04.070Z,7.10
2023-05-16T04:25:55.293Z,9.20
2023-05-16T04:32:49.764Z,10.40
2023-05-16T04:35:23.271Z,8.20
2023-05-16T04:37:51.909Z,9.40
2023-05-16T04:40:20.367Z,9.40
2023-05-16T04:42:49.576Z,6.60
2023-05-16T04:45:44.908Z,6.90
2023-05-16T04:48:13.625Z,6.10
2023-05-16T04:50:53.942Z,11.20
2023-05-16T04:53:33.339Z,6.70
2023-05-16T04:56:06.190Z,9.50
2023-05-16T04:58:34.940Z,8.70
2023-05-16T05:01:03.486Z,6.90
2023-05-16T05:03:31.665Z,6.30
2023-05-16T05:05:59.916Z,6.80
2023-05-16T05:08:28.140Z,10.20
2023-05-16T05:10:57.216Z,8.20
2023-05-16T05:13:25.410Z,9.90
2023-05-16T05:15:53.800Z,8.60
2023-05-16T05:18:22.388Z,8.70
2023-05-16T05:20:52.153Z,10.60
2023-05-16T05:23:20.957Z,8.50
2023-05-16T05:25:49.458Z,6.50
2023-05-16T05:28:17.778Z,8.80
2023-05-16T05:30:46.234Z,7.00
2023-05-16T05:33:17.602Z,14.10
2023-05-16T05:35:45.977Z,11.40
2023-05-16T05:38:14.392Z,7.20
2023-05-16T05:45:15.934Z,12.80
2023-05-16T05:47:45.528Z,19.70
2023-05-16T05:50:15.341Z,9.10
2023-05-16T05:52:43.872Z,12.60
2023-05-16T05:55:12.207Z,8.60
2023-05-16T05:57:41.114Z,8.50
2023-05-16T06:00:14.790Z,11.10
2023-05-16T06:02:43.327Z,8.30
2023-05-16T06:05:14.422Z,13.20
2023-05-16T06:07:42.814Z,7.80
2023-05-16T06:10:11.388Z,9.60
2023-05-16T06:12:40.589Z,7.90
2023-05-16T06:15:12.249Z,10.20
2023-05-16T06:17:41.508Z,7.70
2023-05-16T06:20:11.899Z,9.30
2023-05-16T06:22:40.095Z,10.70
2023-05-16T06:25:10.243Z,8.00
2023-05-16T06:27:38.460Z,9.00
2023-05-16T06:30:11.488Z,13.70
2023-05-16T06:32:42.561Z,9.30
2023-05-16T06:35:10.963Z,10.10
2023-05-16T06:37:41.164Z,14.20
2023-05-16T06:40:12.128Z,10.40
2023-05-16T06:42:41.275Z,9.10
2023-05-16T06:45:11.755Z,8.70
2023-05-16T06:47:40.209Z,8.60
2023-05-16T06:50:10.787Z,24.20
2023-05-16T06:52:39.047Z,56.50
2023-05-16T06:55:08.469Z,28.00
2023-05-16T06:57:36.734Z,16.10
2023-05-16T07:00:07.855Z,19.40
2023-05-16T07:02:39.861Z,16.20
2023-05-16T07:05:09.524Z,21.90
2023-05-16T07:07:40.221Z,140.50
2023-05-16T07:10:13.961Z,21.50
2023-05-16T07:12:45.665Z,13.90
2023-05-16T07:15:41.003Z,41.70
2023-05-16T07:18:09.330Z,29.50
2023-05-16T07:20:41.978Z,25.30
2023-05-16T07:23:10.227Z,20.20
2023-05-16T07:25:38.512Z,11.10
2023-05-16T07:28:11.172Z,11.80
2023-05-16T07:30:41.833Z,19.90
2023-05-16T07:33:10.949Z,11.20
2023-05-16T07:35:43.148Z,37.60
2023-05-16T07:38:11.758Z,11.80
2023-05-16T07:40:40.005Z,6.90
2023-05-16T07:43:08.230Z,18.70
2023-05-16T07:45:36.572Z,5.90
2023-05-16T07:48:05.237Z,9.90
2023-05-16T07:50:34.329Z,5.20
2023-05-16T07:53:02.539Z,6.50
2023-05-16T07:55:35.393Z,7.00
2023-05-16T07:58:04.441Z,6.80
2023-05-16T08:00:33.310Z,8.90
2023-05-16T08:09:58.220Z,4.50
2023-05-16T08:12:28.748Z,6.10
2023-05-16T08:14:59.680Z,4.90
2023-05-16T08:17:31.096Z,9.00
2023-05-16T08:20:01.449Z,4.90
2023-05-16T08:22:30.059Z,4.80
2023-05-16T08:24:59.948Z,5.70
2023-05-16T08:27:28.427Z,12.50
2023-05-16T08:29:57.344Z,4.60
2023-05-16T08:32:26.312Z,5.30
2023-05-16T08:34:54.618Z,7.60
2023-05-16T08:37:23.228Z,4.30
2023-05-16T08:39:51.782Z,6.30
2023-05-16T08:42:20.390Z,4.70
2023-05-16T08:44:50.004Z,4.60
2023-05-16T08:47:21.094Z,6.90
2023-05-16T08:49:55.632Z,4.80
2023-05-16T08:52:30.886Z,9.00
2023-05-16T08:55:11.449Z,5.50
2023-05-16T08:58:27.908Z,4.00
2023-05-16T09:00:56.886Z,3.60
2023-05-16T09:03:28.507Z,7.50
2023-05-16T09:05:57.350Z,6.50
2023-05-16T09:08:49.770Z,7.10
2023-05-16T09:11:18.709Z,8.10
2023-05-16T09:13:46.966Z,4.30
2023-05-16T09:16:17.948Z,5.80
2023-05-16T09:18:53.383Z,545.20
2023-05-16T09:21:22.286Z,939.00
2023-05-16T09:23:50.914Z,222.40
2023-05-16T09:26:26.070Z,14.90
2023-05-16T09:28:55.656Z,7.50
2023-05-16T09:31:26.845Z,72.50
2023-05-16T09:33:56.845Z,227.80
2023-05-16T09:36:26.516Z,564.50
2023-05-16T09:38:57.997Z,668.10
2023-05-16T09:41:26.239Z,848.40
2023-05-16T09:43:55.274Z,412.50
2023-05-16T09:46:27.435Z,80.30
2023-05-16T09:48:56.389Z,13.80
2023-05-16T09:51:25.089Z,21.10
2023-05-16T09:53:54.438Z,10.60
2023-05-16T09:56:22.748Z,3.90
2023-05-16T09:58:52.971Z,11.70
2023-05-16T10:01:21.929Z,4.00
2023-05-16T10:03:56.084Z,5.00
2023-05-16T10:06:28.652Z,2.80
2023-05-16T10:08:57.759Z,7.30
2023-05-16T10:11:26.689Z,3.20
2023-05-16T10:13:58.318Z,7.20
2023-05-16T10:16:27.219Z,4.40
2023-05-16T10:18:56.847Z,5.10
2023-05-16T10:21:29.196Z,7.10
2023-05-16T10:24:01.901Z,9.70
2023-05-16T10:26:31.518Z,4.00
2023-05-16T10:29:01.259Z,11.60
2023-05-16T10:31:30.768Z,363.20
2023-05-16T10:34:00.029Z,527.20
2023-05-16T10:36:29.155Z,55.70
2023-05-16T10:39:01.335Z,11.10
2023-05-16T10:41:31.126Z,615.90
2023-05-16T10:44:00.717Z,439.40
2023-05-16T10:46:35.669Z,597.20
2023-05-16T10:52:01.626Z,17.40
2023-05-16T10:54:36.404Z,23.10
2023-05-16T10:57:11.650Z,300.80
2023-05-16T10:59:45.165Z,386.90
2023-05-16T11:02:27.946Z,38.90
2023-05-16T11:05:00.229Z,5.60
2023-05-16T11:07:35.563Z,2.60
2023-05-16T11:10:06.531Z,2.40
2023-05-16T11:12:48.485Z,3.30
2023-05-16T11:15:28.932Z,2.30
2023-05-16T11:18:08.662Z,1202.60
2023-05-16T11:20:38.114Z,969.20
2023-05-16T11:23:27.042Z,1283.30
2023-05-16T11:25:59.762Z,753.80
2023-05-16T11:28:28.484Z,193.40
2023-05-16T11:30:59.376Z,466.50
2023-05-16T11:33:33.826Z,458.20
2023-05-16T11:36:15.326Z,1728.00
2023-05-16T11:38:44.430Z,361.40
2023-05-16T11:41:14.899Z,46.30
2023-05-16T11:43:44.999Z,5.30
2023-05-16T11:46:13.606Z,8.30
2023-05-16T11:48:43.315Z,5.40
2023-05-16T11:51:11.770Z,4.00
2023-05-16T11:53:40.370Z,4.20
2023-05-16T11:56:09.493Z,3.20
2023-05-16T11:58:39.220Z,5.50
2023-05-16T12:01:07.890Z,4.30
2023-05-16T12:03:36.590Z,4.20
2023-05-16T12:06:06.013Z,4.20
2023-05-16T12:08:34.430Z,6.90
2023-05-16T12:11:02.936Z,21.00
2023-05-16T12:13:31.515Z,206.40
2023-05-16T12:15:59.961Z,15.00
2023-05-16T12:18:28.295Z,607.80
2023-05-16T12:20:56.649Z,490.90
2023-05-16T12:23:28.745Z,28.40
2023-05-16T12:25:57.872Z,289.20
2023-05-16T12:28:30.348Z,1069.00
2023-05-16T12:30:58.623Z,408.70
2023-05-16T12:33:27.551Z,203.60
2023-05-16T12:36:02.147Z,448.00
2023-05-16T12:38:30.595Z,605.40
2023-05-16T12:40:59.544Z,404.00
2023-05-16T12:43:28.094Z,372.20
2023-05-16T12:45:57.924Z,1080.40
2023-05-16T12:48:35.132Z,488.50
2023-05-16T12:51:13.516Z,102.10
2023-05-16T12:53:57.663Z,13.20
2023-05-16T12:56:30.157Z,7.60
2023-05-16T12:58:58.412Z,497.80
2023-05-16T13:01:26.766Z,1137.60
2023-05-16T13:03:55.725Z,218.30
2023-05-16T13:06:24.361Z,726.00
2023-05-16T13:08:52.572Z,560.70
2023-05-16T13:11:20.937Z,521.80
2023-05-16T13:13:49.298Z,566.40
2023-05-16T13:16:17.585Z,714.00
2023-05-16T13:18:45.924Z,424.20
2023-05-16T13:21:14.549Z,291.60
2023-05-16T13:23:42.843Z,27.90
2023-05-16T13:26:11.096Z,597.70
2023-05-16T13:28:39.460Z,1024.90
2023-05-16T13:31:07.770Z,1009.60
2023-05-16T13:33:37.633Z,1112.50
2023-05-16T13:36:08.998Z,327.20
2023-05-16T13:38:52.338Z,443.10
2023-05-16T13:41:21.573Z,244.60
2023-05-16T13:43:50.217Z,372.60
2023-05-16T13:46:18.580Z,165.50
2023-05-16T13:48:47.176Z,554.10
2023-05-16T13:51:15.540Z,421.50
2023-05-16T13:53:54.343Z,363.50
2023-05-16T13:56:22.599Z,50.00
2023-05-16T13:59:02.193Z,10.00
2023-05-16T14:01:36.650Z,8.30
2023-05-16T14:04:05.711Z,4.80
2023-05-16T14:06:44.271Z,4.90
2023-05-16T14:09:12.835Z,2.90
2023-05-16T14:11:42.012Z,6.20
2023-05-16T14:14:10.911Z,7.00
2023-05-16T14:16:44.942Z,4.20
2023-05-16T14:19:15.440Z,7.00
2023-05-16T14:21:45.363Z,8.30
2023-05-16T14:24:14.457Z,8.30
2023-05-16T14:26:48.120Z,4.50
2023-05-16T14:29:16.459Z,6.60
2023-05-16T14:31:47.199Z,7.50
2023-05-16T14:34:15.989Z,11.10
2023-05-16T14:36:44.753Z,11.40
2023-05-16T14:39:16.074Z,3.40
2023-05-16T14:41:44.970Z,3.00
2023-05-16T14:44:13.209Z,5.30
2023-05-16T14:46:42.872Z,4.10
2023-05-16T14:49:11.339Z,3.30
2023-05-16T14:51:40.267Z,4.30
2023-05-16T14:54:08.950Z,5.30
2023-05-16T14:56:37.907Z,6.40
2023-05-16T14:59:06.536Z,5.50
2023-05-16T15:01:35.301Z,3.40
2023-05-16T15:04:04.528Z,6.10
2023-05-16T15:06:32.909Z,5.00
2023-05-16T15:09:03.080Z,6.20
2023-05-16T15:11:31.750Z,4.70
2023-05-16T15:14:01.039Z,6.10
2023-05-16T15:16:34.624Z,9.00
2023-05-16T15:19:12.630Z,5.20
2023-05-16T15:21:41.117Z,9.10
2023-05-16T15:24:09.790Z,3.10
2023-05-16T15:26:39.550Z,6.60
2023-05-16T15:29:07.829Z,5.10
2023-05-16T15:31:38.973Z,4.00
2023-05-16T15:34:08.055Z,9.20
2023-05-16T15:36:36.405Z,6.30
2023-05-16T15:39:45.303Z,2.50
2023-05-16T15:51:52.176Z,2.60
2023-05-16T16:06:15.689Z,7.70
2023-05-16T16:11:58.943Z,10.10
2023-05-16T16:16:08.297Z,4.10
2023-05-16T16:44:35.998Z,4.40
2023-05-16T17:25:25.409Z,2.80
2023-05-16T17:28:21.518Z,4.80
2023-05-16T17:30:56.141Z,3.10
2023-05-16T17:33:31.619Z,7.90
2023-05-16T17:36:02.703Z,3.80
2023-05-16T17:39:15.437Z,2.90
2023-05-16T17:41:46.977Z,4.40
2023-05-16T17:44:20.931Z,5.70
2023-05-16T17:47:01.752Z,3.20
2023-05-16T17:49:51.535Z,2.70
2023-05-16T17:52:32.918Z,3.40
2023-05-16T17:55:38.339Z,3.30
2023-05-16T17:58:15.950Z,6.80
2023-05-16T18:01:03.472Z,7.30
2023-05-16T18:03:37.551Z,5.40
2023-05-16T18:06:09.366Z,14.00
2023-05-16T18:08:54.231Z,3.60
2023-05-16T18:11:39.426Z,4.30
2023-05-16T18:14:27.797Z,4.50
2023-05-16T18:17:16.187Z,6.00
2023-05-16T18:20:13.887Z,3.10
2023-05-16T18:22:51.744Z,5.00
2023-05-16T18:25:23.895Z,5.30
2023-05-16T18:27:55.327Z,5.40
2023-05-16T18:30:31.934Z,3.20
2023-05-16T18:33:04.119Z,3.40
2023-05-16T18:35:35.591Z,9.50
2023-05-16T18:38:09.136Z,5.40
2023-05-16T18:40:50.491Z,6.20
2023-05-16T18:43:35.569Z,12.20
2023-05-16T18:46:06.865Z,6.10
2023-05-16T18:48:40.180Z,5.50
2023-05-16T18:51:12.561Z,7.60
2023-05-16T18:53:43.990Z,5.00
2023-05-16T18:56:15.985Z,4.60
2023-05-16T18:58:46.976Z,3.80
2023-05-16T19:01:22.280Z,7.70
2023-05-16T19:03:53.560Z,7.60
2023-05-16T19:06:25.131Z,7.90
2023-05-16T19:08:56.189Z,22.40
2023-05-16T19:11:30.517Z,5.80
2023-05-16T19:14:03.457Z,18.90
2023-05-16T19:16:34.696Z,11.30
2023-05-16T19:19:08.264Z,13.70
2023-05-16T19:21:46.271Z,5.70
2023-05-16T19:24:17.920Z,5.80
2023-05-16T19:26:53.422Z,7.00
2023-05-16T19:29:30.121Z,8.90
2023-05-16T19:32:21.679Z,5.10
2023-05-16T19:34:52.772Z,5.60
2023-05-16T19:37:25.244Z,5.50
2023-05-16T19:39:56.213Z,11.80
2023-05-16T19:42:28.580Z,13.50
2023-05-16T19:45:02.432Z,7.00
2023-05-16T19:47:36.048Z,70.00
2023-05-16T19:50:08.777Z,25.20
2023-05-16T19:52:39.729Z,21.70
2023-05-16T19:55:12.608Z,9.50
2023-05-16T19:57:43.740Z,7.80
2023-05-16T20:00:17.424Z,8.80
2023-05-16T20:02:50.149Z,13.70
2023-05-16T20:05:23.428Z,6.30
2023-05-16T20:07:56.162Z,9.30
2023-05-16T20:10:27.358Z,7.30
2023-05-16T20:12:58.359Z,11.60
2023-05-16T20:15:32.952Z,12.70
2023-05-16T20:18:04.465Z,8.40
2023-05-16T20:20:36.170Z,6.30
2023-05-16T20:23:07.321Z,10.90
2023-05-16T20:25:38.370Z,7.50
2023-05-16T20:28:09.318Z,7.00
2023-05-16T20:30:40.258Z,6.80
2023-05-16T20:33:13.308Z,10.60
2023-05-16T20:35:44.540Z,8.10
2023-05-16T20:38:16.865Z,8.40
2023-05-16T20:40:48.415Z,10.90
2023-05-16T20:43:19.597Z,10.30
2023-05-16T20:45:50.619Z,8.30
2023-05-16T20:48:22.665Z,9.10
2023-05-16T20:50:54.722Z,10.90
2023-05-16T20:53:25.705Z,9.60
2023-05-16T20:55:57.165Z,10.40
2023-05-16T20:58:28.139Z,8.80
2023-05-16T21:00:59.963Z,8.10
2023-05-16T21:03:31.019Z,10.40
2023-05-16T21:06:02.161Z,11.00
2023-05-16T21:08:34.147Z,7.30
2023-05-16T21:11:05.542Z,7.10
2023-05-16T21:13:36.547Z,12.20
2023-05-16T21:16:08.395Z,9.40
2023-05-16T21:18:39.544Z,13.70
2023-05-16T21:21:10.828Z,11.90
2023-05-16T21:23:41.811Z,9.80
2023-05-16T21:26:12.753Z,11.60
2023-05-16T21:28:54.509Z,12.20
2023-05-16T21:31:26.784Z,7.00
2023-05-16T21:33:57.974Z,10.80
2023-05-16T21:36:29.819Z,13.70
2023-05-16T21:39:00.788Z,15.90
2023-05-16T21:41:31.843Z,12.40
2023-05-16T21:44:02.783Z,10.10
2023-05-16T21:46:33.760Z,14.50
2023-05-16T21:49:04.808Z,17.00
2023-05-16T21:51:35.811Z,12.30
2023-05-16T21:54:07.640Z,10.00
2023-05-16T21:56:39.074Z,10.20
2023-05-16T21:59:13.928Z,13.40
2023-05-16T22:01:44.900Z,13.10
2023-05-16T22:04:16.278Z,19.40
2023-05-16T22:06:47.332Z,15.50
2023-05-16T22:09:18.469Z,14.80
2023-05-16T22:11:49.877Z,14.90
2023-05-16T22:14:21.370Z,15.60
2023-05-16T22:16:52.395Z,13.00
2023-05-16T22:19:57.450Z,15.90
2023-05-16T22:23:11.443Z,16.60
2023-05-16T22:26:13.997Z,17.20
2023-05-16T22:28:58.648Z,17.50
2023-05-16T22:31:56.675Z,18.80
2023-05-16T22:34:34.602Z,13.10
2023-05-16T22:37:07.375Z,12.70
2023-05-16T22:39:38.688Z,29.80
2023-05-16T22:42:09.930Z,17.30
2023-05-16T22:44:40.870Z,21.30
2023-05-16T22:47:11.861Z,14.00
2023-05-16T22:49:42.769Z,19.60
2023-05-16T22:52:13.893Z,21.30
2023-05-16T22:54:44.847Z,16.90
2023-05-16T22:57:16.082Z,21.10
2023-05-16T22:59:47.062Z,14.30
2023-05-16T23:02:18.059Z,13.60
2023-05-16T23:04:49.058Z,13.40
2023-05-16T23:07:20.045Z,15.30
2023-05-16T23:09:51.041Z,15.10
2023-05-16T23:12:22.318Z,17.50
2023-05-16T23:14:53.318Z,16.40
2023-05-16T23:17:24.481Z,15.00
2023-05-16T23:19:55.653Z,19.20
2023-05-16T23:22:26.931Z,16.00
2023-05-16T23:24:57.898Z,16.10
2023-05-16T23:27:28.862Z,14.80
2023-05-16T23:29:59.799Z,14.80
2023-05-16T23:32:31.224Z,16.80
2023-05-16T23:35:02.185Z,16.90
2023-05-16T23:37:33.155Z,16.20
2023-05-16T23:40:04.181Z,15.80
2023-05-16T23:42:36.916Z,18.30
2023-05-16T23:45:10.325Z,15.30
2023-05-16T23:47:41.425Z,16.30
2023-05-16T23:50:13.365Z,15.80
2023-05-16T23:52:44.306Z,16.20
2023-05-16T23:55:15.960Z,20.10
2023-05-16T23:57:46.936Z,15.30
